No particular awareness of the weather is required.    There are no Weather-warnings


Meteo18 Weather Cam more information Meteo18 Weather Cam


Thunder radar more information blitzortung!


Rain radar more information rain snow radar


Visit our other weather sites:

Template documentation
and downloads

And another site



Weather Underground History page Text

Daily Summary for February 16, 2017 Units:  Both    English   Metric
« Previous Day
Next Day »
Daily Weekly Monthly Yearly Custom
  High: Low: Average:
Temperature: TemperatureC °F /  -17.8 °C 3.2 °F /  -16 °C 8.1 °F /  -13.3 °C
Dew Point: DewpointC °F /  -17.8 °C 2.3 °F /  -16.5 °C 6.6 °F /  -14.1 °C
Humidity: Humidity % 79 % 91 %
Wind Speed: WindSpeedKMH mph /  0 km/h - 1.5 mph /  2.4 km/h
Wind Gust: WindSpeedGustKMH mph /  0 km/h - -
Wind:- - SW
Pressure: PressurehPa in /  0 hPa 1030.4 in /  34889.3 hPa -
Precipitation: 1.8 in /  45.72 mm    
Historical Graphs
 
 
Tabular Data for February 16, 2017
Time Temperature Dew Point Pressure Wind Wind Speed Wind Gust Humidity Rainfall Rate (Hourly)
TemperatureC °F /  -17.8 °C DewpointC °F /  -17.8 °C PressurehPa in /  0 hPa Calm     Humidity % HourlyPrecipMM in /  0 mm
00:02 7.2 °F /  -13.8 °C 5.5 °F /  -14.7 °C 1033.4 in /  34990.9 hPa Calm   3.2 mph /  5.1 km/h 89 % 0.0 in /  0 mm
00:12 7.6 °F /  -13.6 °C 5.9 °F /  -14.5 °C 1033.4 in /  34990.9 hPa Calm   3.2 mph /  5.1 km/h 89 % 0.0 in /  0 mm
00:17 7.6 °F /  -13.6 °C 6.1 °F /  -14.4 °C 1033.4 in /  34990.9 hPa Calm   1.6 mph /  2.6 km/h 90 % 0.0 in /  0 mm
00:22 7.6 °F /  -13.6 °C 5.9 °F /  -14.5 °C 1033.4 in /  34990.9 hPa Calm     89 % 0.0 in /  0 mm
00:27 7.3 °F /  -13.7 °C 5.6 °F /  -14.7 °C 1033.4 in /  34990.9 hPa Calm     89 % 0.0 in /  0 mm
00:32 7.1 °F /  -13.8 °C 5.4 °F /  -14.8 °C 1033.4 in /  34990.9 hPa WNW 1.6 mph /  2.6 km/h 1.6 mph /  2.6 km/h 89 % 0.0 in /  0 mm
00:37 6.6 °F /  -14.1 °C 4.9 °F /  -15.1 °C 1033.4 in /  34990.9 hPa Calm   1.6 mph /  2.6 km/h 89 % 0.0 in /  0 mm
00:42 6.7 °F /  -14.1 °C 5.5 °F /  -14.7 °C 1033.4 in /  34990.9 hPa Calm   1.6 mph /  2.6 km/h 92 % 0.0 in /  0 mm
00:47 7.1 °F /  -13.8 °C 6.0 °F /  -14.4 °C 1033.4 in /  34990.9 hPa Calm   1.6 mph /  2.6 km/h 93 % 0.0 in /  0 mm
00:52 7.1 °F /  -13.8 °C 5.6 °F /  -14.7 °C 1033.7 in /  35001.1 hPa WNW 1.6 mph /  2.6 km/h 1.6 mph /  2.6 km/h 90 % 0.0 in /  0 mm
00:57 6.8 °F /  -14 °C 5.4 °F /  -14.8 °C 1033.7 in /  35001.1 hPa WNW 1.6 mph /  2.6 km/h 1.6 mph /  2.6 km/h 91 % 0.0 in /  0 mm
01:02 6.7 °F /  -14.1 °C 5.3 °F /  -14.8 °C 1033.7 in /  35001.1 hPa WNW 1.6 mph /  2.6 km/h 1.6 mph /  2.6 km/h 91 % 0.0 in /  0 mm
01:07 6.4 °F /  -14.2 °C 4.9 °F /  -15.1 °C 1033.7 in /  35001.1 hPa West 1.6 mph /  2.6 km/h 1.6 mph /  2.6 km/h 90 % 0.0 in /  0 mm
01:12 6.3 °F /  -14.3 °C 5.1 °F /  -14.9 °C 1033.7 in /  35001.1 hPa WNW 1.6 mph /  2.6 km/h 1.6 mph /  2.6 km/h 92 % 0.0 in /  0 mm
01:17 6.7 °F /  -14.1 °C 5.8 °F /  -14.6 °C 1033.4 in /  34990.9 hPa Calm   3.2 mph /  5.1 km/h 94 % 0.0 in /  0 mm
01:22 7.3 °F /  -13.7 °C 6.1 °F /  -14.4 °C 1033.4 in /  34990.9 hPa Calm   3.2 mph /  5.1 km/h 92 % 0.0 in /  0 mm
01:27 7.3 °F /  -13.7 °C 5.8 °F /  -14.6 °C 1033.4 in /  34990.9 hPa Calm   3.2 mph /  5.1 km/h 90 % 0.0 in /  0 mm
01:32 7.1 °F /  -13.8 °C 5.6 °F /  -14.7 °C 1033.4 in /  34990.9 hPa Calm   1.6 mph /  2.6 km/h 90 % 0.0 in /  0 mm
01:42 6.4 °F /  -14.2 °C 4.9 °F /  -15.1 °C 1033.4 in /  34990.9 hPa Calm   1.6 mph /  2.6 km/h 90 % 0.0 in /  0 mm
01:47 6.1 °F /  -14.4 °C 4.7 °F /  -15.2 °C 1033.7 in /  35001.1 hPa Calm     91 % 0.0 in /  0 mm
01:52 6.0 °F /  -14.4 °C 4.8 °F /  -15.1 °C 1033.4 in /  34990.9 hPa Calm     92 % 0.0 in /  0 mm
02:02 5.7 °F /  -14.6 °C 4.5 °F /  -15.3 °C 1033.7 in /  35001.1 hPa Calm   1.6 mph /  2.6 km/h 92 % 0.0 in /  0 mm
02:07 5.8 °F /  -14.6 °C 4.8 °F /  -15.1 °C 1033.4 in /  34990.9 hPa Calm   1.6 mph /  2.6 km/h 93 % 0.0 in /  0 mm
02:22 5.6 °F /  -14.7 °C 4.4 °F /  -15.3 °C 1033.4 in /  34990.9 hPa WNW 3.2 mph /  5.1 km/h 3.2 mph /  5.1 km/h 92 % 0.0 in /  0 mm
02:32 5.7 °F /  -14.6 °C 5.0 °F /  -15 °C 1033.7 in /  35001.1 hPa Calm   3.2 mph /  5.1 km/h 95 % 0.0 in /  0 mm
02:42 5.8 °F /  -14.6 °C 4.8 °F /  -15.1 °C 1033.7 in /  35001.1 hPa Calm   3.2 mph /  5.1 km/h 93 % 0.0 in /  0 mm
02:52 5.6 °F /  -14.7 °C 4.6 °F /  -15.2 °C 1033.7 in /  35001.1 hPa Calm   1.6 mph /  2.6 km/h 93 % 0.0 in /  0 mm
02:57 5.4 °F /  -14.8 °C 4.5 °F /  -15.3 °C 1033.4 in /  34990.9 hPa Calm   1.6 mph /  2.6 km/h 94 % 0.0 in /  0 mm
03:02 5.4 °F /  -14.8 °C 4.5 °F /  -15.3 °C 1033.4 in /  34990.9 hPa Calm   1.6 mph /  2.6 km/h 94 % 0.0 in /  0 mm
03:07 5.6 °F /  -14.7 °C 4.9 °F /  -15.1 °C 1033.4 in /  34990.9 hPa Calm   1.6 mph /  2.6 km/h 95 % 0.0 in /  0 mm
03:12 5.6 °F /  -14.7 °C 4.7 °F /  -15.2 °C 1033.7 in /  35001.1 hPa Calm   1.6 mph /  2.6 km/h 94 % 0.0 in /  0 mm
03:17 5.4 °F /  -14.8 °C 4.5 °F /  -15.3 °C 1033.7 in /  35001.1 hPa Calm   1.6 mph /  2.6 km/h 94 % 0.0 in /  0 mm
03:22 5.3 °F /  -14.8 °C 4.4 °F /  -15.3 °C 1033.4 in /  34990.9 hPa Calm     94 % 0.0 in /  0 mm
03:32 5.4 °F /  -14.8 °C 4.7 °F /  -15.2 °C 1033.4 in /  34990.9 hPa Calm     95 % 0.0 in /  0 mm
03:42 5.6 °F /  -14.7 °C 5.0 °F /  -15 °C 1033.4 in /  34990.9 hPa NE 1.6 mph /  2.6 km/h   96 % 0.0 in /  0 mm
03:52 5.6 °F /  -14.7 °C 4.9 °F /  -15.1 °C 1033.4 in /  34990.9 hPa Calm   3.2 mph /  5.1 km/h 95 % 0.0 in /  0 mm
03:57 5.6 °F /  -14.7 °C 4.9 °F /  -15.1 °C 1033.4 in /  34990.9 hPa North 1.6 mph /  2.6 km/h 3.2 mph /  5.1 km/h 95 % 0.0 in /  0 mm
04:02 5.4 °F /  -14.8 °C 4.7 °F /  -15.2 °C 1033.4 in /  34990.9 hPa Calm   3.2 mph /  5.1 km/h 95 % 0.0 in /  0 mm
04:12 4.9 °F /  -15.1 °C 4.2 °F /  -15.4 °C 1033.4 in /  34990.9 hPa Calm   3.2 mph /  5.1 km/h 95 % 0.0 in /  0 mm
04:22 5.2 °F /  -14.9 °C 4.5 °F /  -15.3 °C 1033.4 in /  34990.9 hPa Calm   1.6 mph /  2.6 km/h 95 % 0.0 in /  0 mm
04:27 4.0 °F /  -15.6 °C 2.7 °F /  -16.3 °C 1033.4 in /  34990.9 hPa SE 1.6 mph /  2.6 km/h 1.6 mph /  2.6 km/h 91 % 0.0 in /  0 mm
04:32 3.3 °F /  -15.9 °C 2.3 °F /  -16.5 °C 1033.4 in /  34990.9 hPa Calm   4.8 mph /  7.7 km/h 93 % 0.0 in /  0 mm
04:42 3.9 °F /  -15.6 °C 3.3 °F /  -15.9 °C 1033.1 in /  34980.8 hPa Calm   4.8 mph /  7.7 km/h 96 % 0.0 in /  0 mm
04:47 4.1 °F /  -15.5 °C 3.5 °F /  -15.8 °C 1033.1 in /  34980.8 hPa Calm   1.6 mph /  2.6 km/h 96 % 0.0 in /  0 mm
04:52 4.2 °F /  -15.4 °C 3.6 °F /  -15.8 °C 1033.1 in /  34980.8 hPa Calm     96 % 0.0 in /  0 mm
05:02 4.7 °F /  -15.2 °C 4.3 °F /  -15.4 °C 1033.1 in /  34980.8 hPa Calm     97 % 0.0 in /  0 mm
05:07 4.7 °F /  -15.2 °C 4.1 °F /  -15.5 °C 1033.1 in /  34980.8 hPa Calm     96 % 0.0 in /  0 mm
05:12 5.0 °F /  -15 °C 4.6 °F /  -15.2 °C 1033.1 in /  34980.8 hPa Calm     97 % 0.0 in /  0 mm
05:17 4.8 °F /  -15.1 °C 4.2 °F /  -15.4 °C 1033.1 in /  34980.8 hPa Calm     96 % 0.0 in /  0 mm
05:22 4.8 °F /  -15.1 °C 4.2 °F /  -15.4 °C 1033.1 in /  34980.8 hPa Calm     96 % 0.0 in /  0 mm
05:32 4.3 °F /  -15.4 °C 3.6 °F /  -15.8 °C 1033.1 in /  34980.8 hPa Calm     95 % 0.0 in /  0 mm
05:37 4.1 °F /  -15.5 °C 3.4 °F /  -15.9 °C 1033.1 in /  34980.8 hPa Calm     95 % 0.0 in /  0 mm
05:42 3.9 °F /  -15.6 °C 3.2 °F /  -16 °C 1033.1 in /  34980.8 hPa SSE 3.2 mph /  5.1 km/h   95 % 0.0 in /  0 mm
05:47 3.6 °F /  -15.8 °C 2.9 °F /  -16.2 °C 1033.4 in /  34990.9 hPa Calm   3.2 mph /  5.1 km/h 95 % 0.0 in /  0 mm
05:52 3.3 °F /  -15.9 °C 2.6 °F /  -16.3 °C 1033.4 in /  34990.9 hPa South 1.6 mph /  2.6 km/h 3.2 mph /  5.1 km/h 95 % 0.0 in /  0 mm
05:57 3.2 °F /  -16 °C 2.5 °F /  -16.4 °C 1033.1 in /  34980.8 hPa SSW 1.6 mph /  2.6 km/h 3.2 mph /  5.1 km/h 95 % 0.0 in /  0 mm
06:02 3.2 °F /  -16 °C 2.6 °F /  -16.3 °C 1033.1 in /  34980.8 hPa Calm   3.2 mph /  5.1 km/h 96 % 0.0 in /  0 mm
06:12 3.3 °F /  -15.9 °C 2.7 °F /  -16.3 °C 1033.1 in /  34980.8 hPa Calm   1.6 mph /  2.6 km/h 96 % 0.0 in /  0 mm
06:17 3.4 °F /  -15.9 °C 2.8 °F /  -16.2 °C 1033.1 in /  34980.8 hPa Calm   1.6 mph /  2.6 km/h 96 % 0.0 in /  0 mm
06:22 3.6 °F /  -15.8 °C 3.2 °F /  -16 °C 1033.1 in /  34980.8 hPa Calm   1.6 mph /  2.6 km/h 97 % 0.0 in /  0 mm
06:27 3.6 °F /  -15.8 °C 3.0 °F /  -16.1 °C 1033.1 in /  34980.8 hPa Calm     96 % 0.0 in /  0 mm
06:32 3.5 °F /  -15.8 °C 2.9 °F /  -16.2 °C 1033.1 in /  34980.8 hPa Calm     96 % 0.0 in /  0 mm
06:42 3.6 °F /  -15.8 °C 3.0 °F /  -16.1 °C 1033.1 in /  34980.8 hPa Calm     96 % 0.0 in /  0 mm
06:47 3.8 °F /  -15.7 °C 3.4 °F /  -15.9 °C 1033.1 in /  34980.8 hPa Calm     97 % 0.0 in /  0 mm
06:52 3.9 °F /  -15.6 °C 3.5 °F /  -15.8 °C 1033.1 in /  34980.8 hPa Calm     97 % 0.0 in /  0 mm
07:02 4.2 °F /  -15.4 °C 3.8 °F /  -15.7 °C 1033.1 in /  34980.8 hPa SSW 3.2 mph /  5.1 km/h 3.2 mph /  5.1 km/h 97 % 0.0 in /  0 mm
07:07 4.2 °F /  -15.4 °C 3.8 °F /  -15.7 °C 1033.1 in /  34980.8 hPa Calm   3.2 mph /  5.1 km/h 97 % 0.0 in /  0 mm
07:12 4.1 °F /  -15.5 °C 3.5 °F /  -15.8 °C 1033.1 in /  34980.8 hPa Calm   3.2 mph /  5.1 km/h 96 % 0.0 in /  0 mm
07:17 4.1 °F /  -15.5 °C 3.5 °F /  -15.8 °C 1033.1 in /  34980.8 hPa Calm   3.2 mph /  5.1 km/h 96 % 0.0 in /  0 mm
07:22 4.0 °F /  -15.6 °C 3.4 °F /  -15.9 °C 1033.1 in /  34980.8 hPa Calm   1.6 mph /  2.6 km/h 96 % 0.0 in /  0 mm
07:27 4.1 °F /  -15.5 °C 3.5 °F /  -15.8 °C 1033.1 in /  34980.8 hPa Calm   1.6 mph /  2.6 km/h 96 % 0.0 in /  0 mm
07:32 4.1 °F /  -15.5 °C 3.7 °F /  -15.7 °C 1033.1 in /  34980.8 hPa Calm   1.6 mph /  2.6 km/h 97 % 0.0 in /  0 mm
07:42 4.5 °F /  -15.3 °C 4.1 °F /  -15.5 °C 1033.1 in /  34980.8 hPa Calm   1.6 mph /  2.6 km/h 97 % 0.0 in /  0 mm
07:47 4.5 °F /  -15.3 °C 4.1 °F /  -15.5 °C 1033.1 in /  34980.8 hPa Calm   1.6 mph /  2.6 km/h 97 % 0.0 in /  0 mm
07:52 4.4 °F /  -15.3 °C 4.0 °F /  -15.6 °C 1033.1 in /  34980.8 hPa Calm   1.6 mph /  2.6 km/h 97 % 0.0 in /  0 mm
07:57 4.4 °F /  -15.3 °C 4.0 °F /  -15.6 °C 1033.1 in /  34980.8 hPa Calm   1.6 mph /  2.6 km/h 97 % 0.0 in /  0 mm
08:02 4.3 °F /  -15.4 °C 3.7 °F /  -15.7 °C 1033.1 in /  34980.8 hPa Calm     96 % 0.0 in /  0 mm
08:12 4.2 °F /  -15.4 °C 3.6 °F /  -15.8 °C 1033.1 in /  34980.8 hPa Calm     96 % 0.0 in /  0 mm
08:17 4.2 °F /  -15.4 °C 3.6 °F /  -15.8 °C 1033.1 in /  34980.8 hPa Calm     96 % 0.0 in /  0 mm
08:22 4.4 °F /  -15.3 °C 4.0 °F /  -15.6 °C 1033.1 in /  34980.8 hPa Calm     97 % 0.0 in /  0 mm
08:32 4.6 °F /  -15.2 °C 4.2 °F /  -15.4 °C 1033.4 in /  34990.9 hPa Calm     97 % 0.0 in /  0 mm
08:37 4.5 °F /  -15.3 °C 3.9 °F /  -15.6 °C 1033.4 in /  34990.9 hPa Calm     96 % 0.0 in /  0 mm
08:42 4.5 °F /  -15.3 °C 3.9 °F /  -15.6 °C 1033.4 in /  34990.9 hPa Calm   1.6 mph /  2.6 km/h 96 % 0.0 in /  0 mm
08:47 4.5 °F /  -15.3 °C 3.9 °F /  -15.6 °C 1033.4 in /  34990.9 hPa Calm   1.6 mph /  2.6 km/h 96 % 0.0 in /  0 mm
08:57 4.6 °F /  -15.2 °C 4.0 °F /  -15.6 °C 1033.4 in /  34990.9 hPa Calm     96 % 0.0 in /  0 mm
09:02 4.8 °F /  -15.1 °C 4.4 °F /  -15.3 °C 1033.4 in /  34990.9 hPa Calm     97 % 0.0 in /  0 mm
09:07 4.9 °F /  -15.1 °C 4.5 °F /  -15.3 °C 1033.4 in /  34990.9 hPa Calm     97 % 0.0 in /  0 mm
09:12 5.1 °F /  -14.9 °C 4.5 °F /  -15.3 °C 1033.4 in /  34990.9 hPa Calm     96 % 0.0 in /  0 mm
09:17 5.1 °F /  -14.9 °C 4.5 °F /  -15.3 °C 1033.4 in /  34990.9 hPa Calm     96 % 0.0 in /  0 mm
09:22 5.1 °F /  -14.9 °C 4.5 °F /  -15.3 °C 1033.4 in /  34990.9 hPa Calm     96 % 0.0 in /  0 mm
09:27 5.1 °F /  -14.9 °C 4.5 °F /  -15.3 °C 1033.4 in /  34990.9 hPa Calm     96 % 0.0 in /  0 mm
09:32 5.2 °F /  -14.9 °C 4.6 °F /  -15.2 °C 1033.4 in /  34990.9 hPa Calm     96 % 0.0 in /  0 mm
09:37 5.4 °F /  -14.8 °C 4.8 °F /  -15.1 °C 1033.4 in /  34990.9 hPa Calm     96 % 0.0 in /  0 mm
09:42 5.6 °F /  -14.7 °C 5.0 °F /  -15 °C 1033.4 in /  34990.9 hPa Calm     96 % 0.0 in /  0 mm
09:47 5.6 °F /  -14.7 °C 5.0 °F /  -15 °C 1033.4 in /  34990.9 hPa Calm     96 % 0.0 in /  0 mm
09:52 5.7 °F /  -14.6 °C 5.1 °F /  -14.9 °C 1033.4 in /  34990.9 hPa Calm     96 % 0.0 in /  0 mm
09:57 5.8 °F /  -14.6 °C 5.2 °F /  -14.9 °C 1033.4 in /  34990.9 hPa Calm     96 % 0.0 in /  0 mm
10:02 5.9 °F /  -14.5 °C 5.2 °F /  -14.9 °C 1033.4 in /  34990.9 hPa Calm     95 % 0.0 in /  0 mm
10:12 6.2 °F /  -14.3 °C 5.6 °F /  -14.7 °C 1033.4 in /  34990.9 hPa Calm     96 % 0.0 in /  0 mm
10:17 6.4 °F /  -14.2 °C 5.7 °F /  -14.6 °C 1033.4 in /  34990.9 hPa Calm     95 % 0.0 in /  0 mm
10:22 6.7 °F /  -14.1 °C 6.0 °F /  -14.4 °C 1033.4 in /  34990.9 hPa Calm     95 % 0.0 in /  0 mm
10:32 7.2 °F /  -13.8 °C 6.3 °F /  -14.3 °C 1033.4 in /  34990.9 hPa Calm   3.2 mph /  5.1 km/h 94 % 0.0 in /  0 mm
10:37 7.4 °F /  -13.7 °C 6.5 °F /  -14.2 °C 1033.4 in /  34990.9 hPa Calm   3.2 mph /  5.1 km/h 94 % 0.0 in /  0 mm
10:42 7.5 °F /  -13.6 °C 6.4 °F /  -14.2 °C 1033.4 in /  34990.9 hPa SW 3.2 mph /  5.1 km/h 3.2 mph /  5.1 km/h 93 % 0.0 in /  0 mm
10:47 7.5 °F /  -13.6 °C 6.3 °F /  -14.3 °C 1033.4 in /  34990.9 hPa SSW 1.6 mph /  2.6 km/h 3.2 mph /  5.1 km/h 92 % 0.0 in /  0 mm
10:52 7.7 °F /  -13.5 °C 6.5 °F /  -14.2 °C 1033.4 in /  34990.9 hPa Calm   3.2 mph /  5.1 km/h 92 % 0.0 in /  0 mm
11:02 7.9 °F /  -13.4 °C 6.4 °F /  -14.2 °C 1033.1 in /  34980.8 hPa SSW 1.6 mph /  2.6 km/h 4.8 mph /  7.7 km/h 90 % 0.0 in /  0 mm
11:12 8.2 °F /  -13.2 °C 6.7 °F /  -14.1 °C 1033.1 in /  34980.8 hPa SW 3.2 mph /  5.1 km/h 4.8 mph /  7.7 km/h 90 % 0.0 in /  0 mm
11:17 8.1 °F /  -13.3 °C 6.6 °F /  -14.1 °C 1033.1 in /  34980.8 hPa SW 3.2 mph /  5.1 km/h 6.4 mph /  10.3 km/h 90 % 0.0 in /  0 mm
11:22 8.3 °F /  -13.2 °C 6.8 °F /  -14 °C 1033.1 in /  34980.8 hPa SSW 3.2 mph /  5.1 km/h 6.4 mph /  10.3 km/h 90 % 0.0 in /  0 mm
11:27 8.4 °F /  -13.1 °C 6.9 °F /  -13.9 °C 1033.1 in /  34980.8 hPa SSW 3.2 mph /  5.1 km/h 6.4 mph /  10.3 km/h 90 % 0.0 in /  0 mm
11:32 8.6 °F /  -13 °C 7.1 °F /  -13.8 °C 1033.1 in /  34980.8 hPa SSE 3.2 mph /  5.1 km/h 4.8 mph /  7.7 km/h 90 % 0.0 in /  0 mm
11:42 8.9 °F /  -12.8 °C 7.2 °F /  -13.8 °C 1033.1 in /  34980.8 hPa SW 4.8 mph /  7.7 km/h 6.4 mph /  10.3 km/h 89 % 0.0 in /  0 mm
11:52 9.1 °F /  -12.7 °C 7.4 °F /  -13.7 °C 1033.1 in /  34980.8 hPa SW 4.8 mph /  7.7 km/h 6.4 mph /  10.3 km/h 89 % 0.0 in /  0 mm
11:57 9.2 °F /  -12.7 °C 7.3 °F /  -13.7 °C 1033.1 in /  34980.8 hPa SSW 1.6 mph /  2.6 km/h 6.4 mph /  10.3 km/h 88 % 0.0 in /  0 mm
12:02 9.3 °F /  -12.6 °C 7.4 °F /  -13.7 °C 1033.1 in /  34980.8 hPa SSW 3.2 mph /  5.1 km/h 6.4 mph /  10.3 km/h 88 % 0.0 in /  0 mm
12:12 9.4 °F /  -12.6 °C 7.5 °F /  -13.6 °C 1033.1 in /  34980.8 hPa SSW 6.4 mph /  10.3 km/h 6.4 mph /  10.3 km/h 88 % 0.0 in /  0 mm
12:17 9.4 °F /  -12.6 °C 7.5 °F /  -13.6 °C 1033.1 in /  34980.8 hPa SSW 3.2 mph /  5.1 km/h 6.4 mph /  10.3 km/h 88 % 0.0 in /  0 mm
12:22 9.6 °F /  -12.4 °C 7.7 °F /  -13.5 °C 1033.1 in /  34980.8 hPa SSW 3.2 mph /  5.1 km/h 6.4 mph /  10.3 km/h 88 % 0.0 in /  0 mm
12:32 9.8 °F /  -12.3 °C 7.9 °F /  -13.4 °C 1033.1 in /  34980.8 hPa SSW 4.8 mph /  7.7 km/h 8.0 mph /  12.9 km/h 88 % 0.0 in /  0 mm
12:37 9.9 °F /  -12.3 °C 8.0 °F /  -13.3 °C 1033.1 in /  34980.8 hPa SSW 4.8 mph /  7.7 km/h 9.7 mph /  15.6 km/h 88 % 0.0 in /  0 mm
12:42 10.1 °F /  -12.2 °C 8.2 °F /  -13.2 °C 1033.1 in /  34980.8 hPa SSW 8.0 mph /  12.9 km/h 9.7 mph /  15.6 km/h 88 % 0.0 in /  0 mm
12:52 10.3 °F /  -12.1 °C 8.1 °F /  -13.3 °C 1032.7 in /  34967.2 hPa South 3.2 mph /  5.1 km/h 9.7 mph /  15.6 km/h 86 % 0.0 in /  0 mm
12:57 10.4 °F /  -12 °C 8.2 °F /  -13.2 °C 1032.7 in /  34967.2 hPa SSW 3.2 mph /  5.1 km/h 8.0 mph /  12.9 km/h 86 % 0.0 in /  0 mm
13:02 10.5 °F /  -11.9 °C 8.3 °F /  -13.2 °C 1032.7 in /  34967.2 hPa South 1.6 mph /  2.6 km/h 6.4 mph /  10.3 km/h 86 % 0.0 in /  0 mm
13:12 10.9 °F /  -11.7 °C 8.6 °F /  -13 °C 1032.4 in /  34957.1 hPa SSW 3.2 mph /  5.1 km/h 6.4 mph /  10.3 km/h 86 % 0.0 in /  0 mm
13:17 11.0 °F /  -11.7 °C 8.6 °F /  -13 °C 1032.4 in /  34957.1 hPa SW 3.2 mph /  5.1 km/h 6.4 mph /  10.3 km/h 85 % 0.0 in /  0 mm
13:22 11.1 °F /  -11.6 °C 8.5 °F /  -13.1 °C 1032.4 in /  34957.1 hPa South 4.8 mph /  7.7 km/h 8.0 mph /  12.9 km/h 84 % 0.0 in /  0 mm
13:32 11.3 °F /  -11.5 °C 8.3 °F /  -13.2 °C 1032.4 in /  34957.1 hPa SSW 4.8 mph /  7.7 km/h 6.4 mph /  10.3 km/h 82 % 0.0 in /  0 mm
13:37 11.4 °F /  -11.4 °C 8.3 °F /  -13.2 °C 1032.1 in /  34946.9 hPa SSW 1.6 mph /  2.6 km/h 6.4 mph /  10.3 km/h 81 % 0.0 in /  0 mm
13:42 11.6 °F /  -11.3 °C 8.8 °F /  -12.9 °C 1032.1 in /  34946.9 hPa SW 6.4 mph /  10.3 km/h 6.4 mph /  10.3 km/h 83 % 0.0 in /  0 mm
13:47 11.8 °F /  -11.2 °C 9.0 °F /  -12.8 °C 1032.1 in /  34946.9 hPa Calm   8.0 mph /  12.9 km/h 83 % 0.0 in /  0 mm
13:52 12.0 °F /  -11.1 °C 8.7 °F /  -12.9 °C 1032.1 in /  34946.9 hPa SSW 1.6 mph /  2.6 km/h 8.0 mph /  12.9 km/h 80 % 0.0 in /  0 mm
13:57 12.2 °F /  -11 °C 8.7 °F /  -12.9 °C 1032.1 in /  34946.9 hPa SSW 3.2 mph /  5.1 km/h 8.0 mph /  12.9 km/h 79 % 0.0 in /  0 mm
14:02 12.2 °F /  -11 °C 8.9 °F /  -12.8 °C 1032.1 in /  34946.9 hPa SSW 3.2 mph /  5.1 km/h 8.0 mph /  12.9 km/h 80 % 0.0 in /  0 mm
14:07 12.3 °F /  -10.9 °C 8.9 °F /  -12.8 °C 1031.7 in /  34933.4 hPa SW 4.8 mph /  7.7 km/h 11.3 mph /  18.2 km/h 80 % 0.0 in /  0 mm
14:12 12.5 °F /  -10.8 °C 9.1 °F /  -12.7 °C 1031.7 in /  34933.4 hPa SSW 8.0 mph /  12.9 km/h 11.3 mph /  18.2 km/h 80 % 0.0 in /  0 mm
14:17 12.6 °F /  -10.8 °C 9.2 °F /  -12.7 °C 1031.7 in /  34933.4 hPa SSW 4.8 mph /  7.7 km/h 11.3 mph /  18.2 km/h 80 % 0.0 in /  0 mm
14:27 12.9 °F /  -10.6 °C 9.5 °F /  -12.5 °C 1031.7 in /  34933.4 hPa South 4.8 mph /  7.7 km/h 11.3 mph /  18.2 km/h 80 % 0.0 in /  0 mm
14:32 12.9 °F /  -10.6 °C 9.3 °F /  -12.6 °C 1031.4 in /  34923.2 hPa SSW 1.6 mph /  2.6 km/h 11.3 mph /  18.2 km/h 79 % 0.0 in /  0 mm
14:42 12.8 °F /  -10.7 °C 9.2 °F /  -12.7 °C 1031.4 in /  34923.2 hPa SW 4.8 mph /  7.7 km/h 14.5 mph /  23.3 km/h 79 % 0.0 in /  0 mm
14:47 12.7 °F /  -10.7 °C 9.3 °F /  -12.6 °C 1031.0 in /  34909.7 hPa SSW 9.7 mph /  15.6 km/h 14.5 mph /  23.3 km/h 80 % 0.0 in /  0 mm
14:52 12.7 °F /  -10.7 °C 9.2 °F /  -12.7 °C 1031.0 in /  34909.7 hPa SW 8.0 mph /  12.9 km/h 12.9 mph /  20.8 km/h 79 % 0.0 in /  0 mm
14:57 12.6 °F /  -10.8 °C 9.2 °F /  -12.7 °C 1031.0 in /  34909.7 hPa SW 9.7 mph /  15.6 km/h 12.9 mph /  20.8 km/h 80 % 0.0 in /  0 mm
15:02 12.6 °F /  -10.8 °C 9.2 °F /  -12.7 °C 1031.0 in /  34909.7 hPa SW 8.0 mph /  12.9 km/h 11.3 mph /  18.2 km/h 80 % 0.0 in /  0 mm
15:12 12.6 °F /  -10.8 °C 9.2 °F /  -12.7 °C 1031.0 in /  34909.7 hPa SSW 1.6 mph /  2.6 km/h 12.9 mph /  20.8 km/h 80 % 0.0 in /  0 mm
15:22 12.6 °F /  -10.8 °C 9.2 °F /  -12.7 °C 1031.0 in /  34909.7 hPa WSW 4.8 mph /  7.7 km/h 9.7 mph /  15.6 km/h 80 % 0.0 in /  0 mm
15:32 12.6 °F /  -10.8 °C 9.4 °F /  -12.6 °C 1031.0 in /  34909.7 hPa WSW 4.8 mph /  7.7 km/h 9.7 mph /  15.6 km/h 81 % 0.0 in /  0 mm
15:37 12.5 °F /  -10.8 °C 9.3 °F /  -12.6 °C 1031.0 in /  34909.7 hPa SW 3.2 mph /  5.1 km/h 9.7 mph /  15.6 km/h 81 % 0.0 in /  0 mm
15:42 12.4 °F /  -10.9 °C 9.2 °F /  -12.7 °C 1031.0 in /  34909.7 hPa SW 3.2 mph /  5.1 km/h 11.3 mph /  18.2 km/h 81 % 0.0 in /  0 mm
15:47 12.4 °F /  -10.9 °C 9.2 °F /  -12.7 °C 1031.0 in /  34909.7 hPa SW 8.0 mph /  12.9 km/h 11.3 mph /  18.2 km/h 81 % 0.0 in /  0 mm
15:52 12.3 °F /  -10.9 °C 9.1 °F /  -12.7 °C 1031.0 in /  34909.7 hPa SW 11.3 mph /  18.2 km/h 11.3 mph /  18.2 km/h 81 % 0.0 in /  0 mm
16:02 12.2 °F /  -11 °C 9.2 °F /  -12.7 °C 1031.0 in /  34909.7 hPa SSW 8.0 mph /  12.9 km/h 12.9 mph /  20.8 km/h 82 % 0.0 in /  0 mm
16:12 12.1 °F /  -11.1 °C 9.3 °F /  -12.6 °C 1030.7 in /  34899.5 hPa SW 6.4 mph /  10.3 km/h 11.3 mph /  18.2 km/h 83 % 0.0 in /  0 mm
16:17 12.1 °F /  -11.1 °C 9.3 °F /  -12.6 °C 1030.7 in /  34899.5 hPa SW 8.0 mph /  12.9 km/h 11.3 mph /  18.2 km/h 83 % 0.0 in /  0 mm
16:27 12.1 °F /  -11.1 °C 9.5 °F /  -12.5 °C 1030.7 in /  34899.5 hPa SSW 6.4 mph /  10.3 km/h 11.3 mph /  18.2 km/h 84 % 0.0 in /  0 mm
16:32 12.1 °F /  -11.1 °C 9.5 °F /  -12.5 °C 1030.7 in /  34899.5 hPa SSW 1.6 mph /  2.6 km/h 9.7 mph /  15.6 km/h 84 % 0.0 in /  0 mm
16:42 12.1 °F /  -11.1 °C 9.5 °F /  -12.5 °C 1030.7 in /  34899.5 hPa SW 3.2 mph /  5.1 km/h 8.0 mph /  12.9 km/h 84 % 0.0 in /  0 mm
16:47 12.1 °F /  -11.1 °C 9.5 °F /  -12.5 °C 1030.7 in /  34899.5 hPa SW 3.2 mph /  5.1 km/h 8.0 mph /  12.9 km/h 84 % 0.0 in /  0 mm
16:52 12.1 °F /  -11.1 °C 9.5 °F /  -12.5 °C 1030.7 in /  34899.5 hPa SW 3.2 mph /  5.1 km/h 8.0 mph /  12.9 km/h 84 % 0.0 in /  0 mm
16:57 12.1 °F /  -11.1 °C 9.7 °F /  -12.4 °C 1030.7 in /  34899.5 hPa SW 3.2 mph /  5.1 km/h 8.0 mph /  12.9 km/h 85 % 0.0 in /  0 mm
17:02 12.1 °F /  -11.1 °C 9.7 °F /  -12.4 °C 1030.7 in /  34899.5 hPa SW 6.4 mph /  10.3 km/h 8.0 mph /  12.9 km/h 85 % 0.0 in /  0 mm
17:12 12.4 °F /  -10.9 °C 9.6 °F /  -12.4 °C 1030.7 in /  34899.5 hPa Calm   9.7 mph /  15.6 km/h 83 % 0.0 in /  0 mm
17:17 12.4 °F /  -10.9 °C 9.4 °F /  -12.6 °C 1030.7 in /  34899.5 hPa SW 3.2 mph /  5.1 km/h 9.7 mph /  15.6 km/h 82 % 0.0 in /  0 mm
17:22 12.3 °F /  -10.9 °C 9.5 °F /  -12.5 °C 1030.7 in /  34899.5 hPa SW 6.4 mph /  10.3 km/h 9.7 mph /  15.6 km/h 83 % 0.0 in /  0 mm
17:32 12.1 °F /  -11.1 °C 9.5 °F /  -12.5 °C 1030.7 in /  34899.5 hPa SSW 6.4 mph /  10.3 km/h 8.0 mph /  12.9 km/h 84 % 0.0 in /  0 mm
17:42 11.8 °F /  -11.2 °C 9.2 °F /  -12.7 °C 1030.7 in /  34899.5 hPa SW 3.2 mph /  5.1 km/h 9.7 mph /  15.6 km/h 84 % 0.0 in /  0 mm
17:47 11.8 °F /  -11.2 °C 9.0 °F /  -12.8 °C 1030.7 in /  34899.5 hPa SW 4.8 mph /  7.7 km/h 9.7 mph /  15.6 km/h 83 % 0.0 in /  0 mm
17:57 11.8 °F /  -11.2 °C 9.0 °F /  -12.8 °C 1030.7 in /  34899.5 hPa West 1.6 mph /  2.6 km/h 8.0 mph /  12.9 km/h 83 % 0.0 in /  0 mm
18:02 11.7 °F /  -11.3 °C 8.9 °F /  -12.8 °C 1030.7 in /  34899.5 hPa WNW 3.2 mph /  5.1 km/h 6.4 mph /  10.3 km/h 83 % 0.0 in /  0 mm
18:12 11.2 °F /  -11.6 °C 8.8 °F /  -12.9 °C 1030.7 in /  34899.5 hPa Calm   3.2 mph /  5.1 km/h 85 % 0.0 in /  0 mm
18:17 11.2 °F /  -11.6 °C 8.8 °F /  -12.9 °C 1030.7 in /  34899.5 hPa Calm   3.2 mph /  5.1 km/h 85 % 0.0 in /  0 mm
18:22 11.2 °F /  -11.6 °C 8.8 °F /  -12.9 °C 1030.7 in /  34899.5 hPa Calm   3.2 mph /  5.1 km/h 85 % 0.0 in /  0 mm
18:32 11.0 °F /  -11.7 °C 8.7 °F /  -12.9 °C 1030.7 in /  34899.5 hPa Calm   3.2 mph /  5.1 km/h 86 % 0.0 in /  0 mm
18:37 10.8 °F /  -11.8 °C 8.6 °F /  -13 °C 1030.7 in /  34899.5 hPa Calm   3.2 mph /  5.1 km/h 86 % 0.0 in /  0 mm
18:42 10.8 °F /  -11.8 °C 8.7 °F /  -12.9 °C 1030.7 in /  34899.5 hPa North 1.6 mph /  2.6 km/h 3.2 mph /  5.1 km/h 87 % 0.0 in /  0 mm
18:52 10.8 °F /  -11.8 °C 8.7 °F /  -12.9 °C 1030.7 in /  34899.5 hPa Calm   1.6 mph /  2.6 km/h 87 % 0.0 in /  0 mm
18:57 10.8 °F /  -11.8 °C 8.7 °F /  -12.9 °C 1031.0 in /  34909.7 hPa Calm   1.6 mph /  2.6 km/h 87 % 0.0 in /  0 mm
19:02 10.7 °F /  -11.8 °C 8.6 °F /  -13 °C 1031.0 in /  34909.7 hPa Calm     87 % 0.0 in /  0 mm
19:12 10.7 °F /  -11.8 °C 8.8 °F /  -12.9 °C 1031.0 in /  34909.7 hPa Calm     88 % 0.0 in /  0 mm
19:17 10.9 °F /  -11.7 °C 8.8 °F /  -12.9 °C 1031.0 in /  34909.7 hPa Calm   1.6 mph /  2.6 km/h 87 % 0.0 in /  0 mm
19:27 10.7 °F /  -11.8 °C 8.8 °F /  -12.9 °C 1031.0 in /  34909.7 hPa NNW 1.6 mph /  2.6 km/h 3.2 mph /  5.1 km/h 88 % 0.0 in /  0 mm
19:32 10.7 °F /  -11.8 °C 8.6 °F /  -13 °C 1031.0 in /  34909.7 hPa North 1.6 mph /  2.6 km/h 3.2 mph /  5.1 km/h 87 % 0.0 in /  0 mm
19:37 10.6 °F /  -11.9 °C 8.7 °F /  -12.9 °C 1031.0 in /  34909.7 hPa NNW 1.6 mph /  2.6 km/h 3.2 mph /  5.1 km/h 88 % 0.0 in /  0 mm
19:42 10.5 °F /  -11.9 °C 8.6 °F /  -13 °C 1031.0 in /  34909.7 hPa NNW 1.6 mph /  2.6 km/h 4.8 mph /  7.7 km/h 88 % 0.0 in /  0 mm
19:47 10.6 °F /  -11.9 °C 8.9 °F /  -12.8 °C 1031.0 in /  34909.7 hPa Calm   4.8 mph /  7.7 km/h 89 % 0.0 in /  0 mm
19:57 10.5 °F /  -11.9 °C 8.6 °F /  -13 °C 1031.0 in /  34909.7 hPa Calm   3.2 mph /  5.1 km/h 88 % 0.0 in /  0 mm
20:02 10.4 °F /  -12 °C 8.7 °F /  -12.9 °C 1031.0 in /  34909.7 hPa NNW 1.6 mph /  2.6 km/h 1.6 mph /  2.6 km/h 89 % 0.0 in /  0 mm
20:12 10.6 °F /  -11.9 °C 9.0 °F /  -12.8 °C 1031.0 in /  34909.7 hPa Calm   3.2 mph /  5.1 km/h 90 % 0.0 in /  0 mm
20:17 10.4 °F /  -12 °C 8.8 °F /  -12.9 °C 1031.0 in /  34909.7 hPa WNW 3.2 mph /  5.1 km/h 4.8 mph /  7.7 km/h 90 % 0.5 in /  12.7 mm
20:22 10.3 °F /  -12.1 °C 8.9 °F /  -12.8 °C 1031.0 in /  34909.7 hPa Calm   6.4 mph /  10.3 km/h 91 % 0.5 in /  12.7 mm
20:27 10.2 °F /  -12.1 °C 9.0 °F /  -12.8 °C 1031.0 in /  34909.7 hPa Calm   6.4 mph /  10.3 km/h 92 % 1.0 in /  25.4 mm
20:37 10.1 °F /  -12.2 °C 9.0 °F /  -12.8 °C 1031.0 in /  34909.7 hPa Calm   3.2 mph /  5.1 km/h 93 % 1.5 in /  38.1 mm
20:42 10.1 °F /  -12.2 °C 9.0 °F /  -12.8 °C 1031.0 in /  34909.7 hPa NW 1.6 mph /  2.6 km/h 1.6 mph /  2.6 km/h 93 % 1.5 in /  38.1 mm
20:47 10.1 °F /  -12.2 °C 9.2 °F /  -12.7 °C 1031.0 in /  34909.7 hPa North 1.6 mph /  2.6 km/h 1.6 mph /  2.6 km/h 94 % 1.8 in /  45.72 mm
20:52 9.9 °F /  -12.3 °C 9.0 °F /  -12.8 °C 1031.0 in /  34909.7 hPa Calm   3.2 mph /  5.1 km/h 94 % 1.8 in /  45.72 mm
20:57 9.9 °F /  -12.3 °C 9.0 °F /  -12.8 °C 1031.0 in /  34909.7 hPa Calm   3.2 mph /  5.1 km/h 94 % 1.8 in /  45.72 mm
21:02 9.8 °F /  -12.3 °C 8.9 °F /  -12.8 °C 1031.0 in /  34909.7 hPa South 1.6 mph /  2.6 km/h 3.2 mph /  5.1 km/h 94 % 1.8 in /  45.72 mm
21:07 9.7 °F /  -12.4 °C 8.8 °F /  -12.9 °C 1030.7 in /  34899.5 hPa Calm   3.2 mph /  5.1 km/h 94 % 1.8 in /  45.72 mm
21:12 9.7 °F /  -12.4 °C 8.9 °F /  -12.8 °C 1031.0 in /  34909.7 hPa Calm   3.2 mph /  5.1 km/h 95 % 1.5 in /  38.1 mm
21:17 9.7 °F /  -12.4 °C 8.9 °F /  -12.8 °C 1031.0 in /  34909.7 hPa Calm   3.2 mph /  5.1 km/h 95 % 1.5 in /  38.1 mm
21:27 9.5 °F /  -12.5 °C 8.7 °F /  -12.9 °C 1031.0 in /  34909.7 hPa Calm   1.6 mph /  2.6 km/h 95 % 0.8 in /  20.32 mm
21:32 9.5 °F /  -12.5 °C 8.7 °F /  -12.9 °C 1031.0 in /  34909.7 hPa Calm   1.6 mph /  2.6 km/h 95 % 0.5 in /  12.7 mm
21:42 9.6 °F /  -12.4 °C 9.0 °F /  -12.8 °C 1031.0 in /  34909.7 hPa Calm   1.6 mph /  2.6 km/h 96 % 0.3 in /  7.62 mm
21:47 9.6 °F /  -12.4 °C 9.0 °F /  -12.8 °C 1031.0 in /  34909.7 hPa Calm     96 % 0.0 in /  0 mm
21:52 9.5 °F /  -12.5 °C 8.7 °F /  -12.9 °C 1031.0 in /  34909.7 hPa NNW 3.2 mph /  5.1 km/h   95 % 0.0 in /  0 mm
21:57 9.3 °F /  -12.6 °C 8.5 °F /  -13.1 °C 1031.0 in /  34909.7 hPa Calm   3.2 mph /  5.1 km/h 95 % 0.0 in /  0 mm
22:02 9.1 °F /  -12.7 °C 8.3 °F /  -13.2 °C 1031.0 in /  34909.7 hPa Calm   3.2 mph /  5.1 km/h 95 % 0.0 in /  0 mm
22:07 9.0 °F /  -12.8 °C 8.2 °F /  -13.2 °C 1030.7 in /  34899.5 hPa Calm   3.2 mph /  5.1 km/h 95 % 0.0 in /  0 mm
22:12 8.9 °F /  -12.8 °C 8.3 °F /  -13.2 °C 1030.7 in /  34899.5 hPa NNW 1.6 mph /  2.6 km/h   96 % 0.0 in /  0 mm
22:17 8.8 °F /  -12.9 °C 8.2 °F /  -13.2 °C 1030.7 in /  34899.5 hPa Calm   1.6 mph /  2.6 km/h 96 % 0.0 in /  0 mm
22:22 8.6 °F /  -13 °C 7.8 °F /  -13.4 °C 1030.7 in /  34899.5 hPa SSW 3.2 mph /  5.1 km/h 3.2 mph /  5.1 km/h 95 % 0.0 in /  0 mm
22:27 8.6 °F /  -13 °C 8.0 °F /  -13.3 °C 1030.7 in /  34899.5 hPa Calm   3.2 mph /  5.1 km/h 96 % 0.0 in /  0 mm
22:32 8.5 °F /  -13.1 °C 7.9 °F /  -13.4 °C 1030.7 in /  34899.5 hPa Calm   3.2 mph /  5.1 km/h 96 % 0.0 in /  0 mm
22:37 8.4 °F /  -13.1 °C 7.8 °F /  -13.4 °C 1030.7 in /  34899.5 hPa Calm   3.2 mph /  5.1 km/h 96 % 0.0 in /  0 mm
22:42 8.5 °F /  -13.1 °C 7.9 °F /  -13.4 °C 1030.7 in /  34899.5 hPa Calm   3.2 mph /  5.1 km/h 96 % 0.0 in /  0 mm
22:47 8.6 °F /  -13 °C 8.2 °F /  -13.2 °C 1030.7 in /  34899.5 hPa Calm   1.6 mph /  2.6 km/h 97 % 0.0 in /  0 mm
22:52 8.4 °F /  -13.1 °C 7.8 °F /  -13.4 °C 1030.7 in /  34899.5 hPa North 1.6 mph /  2.6 km/h   96 % 0.0 in /  0 mm
23:02 8.6 °F /  -13 °C 8.2 °F /  -13.2 °C 1030.7 in /  34899.5 hPa Calm   3.2 mph /  5.1 km/h 97 % 0.0 in /  0 mm
23:12 8.7 °F /  -12.9 °C 8.3 °F /  -13.2 °C 1030.7 in /  34899.5 hPa Calm   1.6 mph /  2.6 km/h 97 % 0.0 in /  0 mm
23:17 8.8 °F /  -12.9 °C 8.3 °F /  -13.2 °C 1030.7 in /  34899.5 hPa Calm   1.6 mph /  2.6 km/h 97 % 0.0 in /  0 mm
23:22 8.8 °F /  -12.9 °C 8.3 °F /  -13.2 °C 1030.7 in /  34899.5 hPa Calm     97 % 0.0 in /  0 mm
23:27 8.7 °F /  -12.9 °C 8.3 °F /  -13.2 °C 1030.7 in /  34899.5 hPa Calm     97 % 0.0 in /  0 mm
23:32 8.7 °F /  -12.9 °C 8.3 °F /  -13.2 °C 1030.7 in /  34899.5 hPa Calm     97 % 0.0 in /  0 mm
23:37 8.4 °F /  -13.1 °C 7.8 °F /  -13.4 °C 1030.7 in /  34899.5 hPa Calm     96 % 0.0 in /  0 mm
23:42 8.4 °F /  -13.1 °C 8.0 °F /  -13.3 °C 1030.7 in /  34899.5 hPa Calm     97 % 0.0 in /  0 mm
23:47 8.6 °F /  -13 °C 8.2 °F /  -13.2 °C 1030.7 in /  34899.5 hPa Calm     97 % 0.0 in /  0 mm
23:52 8.5 °F /  -13.1 °C 8.1 °F /  -13.3 °C 1030.4 in /  34889.3 hPa Calm     97 % 0.0 in /  0 mm
Meteo18
Compliments of Weather Underground - 4 mb

Script developed by  Jim McMurry - jmcmurry@mwt.net Adapted for the template by  Wim van der Kuil - Leuven-Template.eu

You find our weather info also at:

European Weather Network

Weather Underground

Equipment we use:

Weather-station
Davis Vue

Weather-program
Meteobridge

Weather-server
Raspberry PI 2 B+

Provider
1 and 1

Davis Vue

Meteobridge

Raspberry PI 2 B+

1 and 1